KJAX/JAX METAR and TAF weather

Enter ICAO airport designator
Station Type Date Time Source
KJAX METAR 2020/04/02 02:56 UTC NOAA

KJAX 020256Z 00000KT 10SM CLR 13/09 A2997 RMK AO2 SLP150 T01280094 51026


Station Type Date Time Source
KJAX Decoded METAR 2020/04/02 02:56 UTC NOAA

JACKSONVILLE INTERNATIONAL, FL, United States (KJAX) 30-30N 81-42W 7M
Apr 01, 2020 - 10:56 PM EDT / 2020.04.02 0256 UTC
Wind: Calm:0
Visibility: 10 mile(s):0
Sky conditions: clear
Temperature: 55.0 F (12.8 C)
Dew Point: 48.9 F (9.4 C)
Relative Humidity: 79%
Pressure (altimeter): 29.97 in. Hg (1014 hPa)
Pressure tendency: 0.08 inches (2.6 hPa) higher than three hours ago
ob: KJAX 020256Z 00000KT 10SM CLR 13/09 A2997 RMK AO2 SLP150 T01280094 51026
cycle: 3

Station Type Date Time Source
KJAX TAF 2020/04/01 18:33 UTC NOAA

TAF KJAX 011731Z 0118/0218 30010KT P6SM FEW250
FM012300 36006KT P6SM SKC
FM021500 03005KT P6SM FEW250

Example: see airport list